Time;durP1;ratioP1;P1;durP2;ratioP2;P2;SDS_P1;SDS_P2;PMS_P1;PMS_P2;Temp;Humidity;BMP_temperature;BMP_pressure;BME280_temperature;BME280_humidity;BME280_pressure;Samples;Min_cycle;Max_cycle;Signal;HPM_P1;HPM_P2
2021/07/11 00:00:32;;;;;;;2.03;1.88;;;;;;;;;;4950836;28;20035;-68
2021/07/11 00:02:58;;;;;;;2.30;2.10;;;;;;;;;;4948978;28;20046;-69
2021/07/11 00:05:24;;;;;;;2.72;2.20;;;;;;;;;;4955340;28;20035;-67
2021/07/11 00:07:50;;;;;;;2.97;2.70;;;;;;;;;;4955181;28;20027;-69
2021/07/11 00:10:15;;;;;;;2.40;2.20;;;;;;;;;;4950988;28;20151;-68
2021/07/11 00:12:41;;;;;;;2.08;1.90;;;;;;;;;;4950180;28;20043;-68
2021/07/11 00:15:08;;;;;;;7.82;3.00;;;;;;;;;;4950754;28;20035;-69
2021/07/11 00:17:33;;;;;;;1.77;1.67;;;;;;;;;;4950791;28;20400;-68
2021/07/11 00:19:59;;;;;;;1.60;1.50;;;;;;;;;;4951726;28;20019;-67
2021/07/11 00:22:24;;;;;;;1.80;1.55;;;;;;;;;;4958189;28;20112;-68
2021/07/11 00:24:50;;;;;;;2.13;1.92;;;;;;;;;;4949600;28;20125;-68
2021/07/11 00:27:16;;;;;;;2.10;1.90;;;;;;;;;;4950687;28;20043;-68
2021/07/11 00:29:41;;;;;;;1.77;1.67;;;;;;;;;;4950509;28;20027;-68
2021/07/11 00:32:06;;;;;;;7.00;2.10;;;;;;;;;;4950114;28;20039;-68
2021/07/11 00:34:32;;;;;;;1.65;1.55;;;;;;;;;;4952149;28;20026;-68
2021/07/11 00:36:57;;;;;;;2.05;1.90;;;;;;;;;;4981160;28;20045;-68
2021/07/11 00:39:22;;;;;;;2.35;2.05;;;;;;;;;;4984635;28;20388;-70
2021/07/11 00:41:47;;;;;;;2.70;1.83;;;;;;;;;;4969678;28;20102;-68
2021/07/11 00:44:13;;;;;;;2.30;2.03;;;;;;;;;;4967591;28;20031;-69
2021/07/11 00:46:38;;;;;;;2.10;1.92;;;;;;;;;;4971729;28;20027;-68
2021/07/11 00:49:06;;;;;;;1.90;1.80;;;;;;;;;;4984288;28;20392;-68
2021/07/11 00:51:31;;;;;;;2.58;2.33;;;;;;;;;;4962751;28;20131;-68
2021/07/11 00:53:57;;;;;;;2.10;2.00;;;;;;;;;;4964290;28;20523;-68
2021/07/11 00:56:22;;;;;;;2.83;2.28;;;;;;;;;;4950305;28;20093;-68
2021/07/11 00:58:48;;;;;;;2.67;1.92;;;;;;;;;;4952379;28;20081;-68
2021/07/11 01:01:16;;;;;;;2.35;2.17;;;;;;;;;;4950193;28;20093;-68
2021/07/11 01:03:45;;;;;;;2.30;2.10;;;;;;;;;;4949713;28;20028;-69
2021/07/11 01:06:12;;;;;;;2.45;2.25;;;;;;;;;;4955199;28;20043;-68
2021/07/11 01:08:43;;;;;;;2.38;2.20;;;;;;;;;;4949816;28;20114;-68
2021/07/11 01:11:10;;;;;;;2.93;2.40;;;;;;;;;;4950190;28;20018;-68
2021/07/11 01:13:37;;;;;;;2.60;2.40;;;;;;;;;;4951576;28;20077;-68
2021/07/11 01:16:05;;;;;;;2.80;2.60;;;;;;;;;;4950061;28;20093;-68
2021/07/11 01:18:31;;;;;;;5.25;2.90;;;;;;;;;;4950173;28;20036;-68
2021/07/11 01:21:01;;;;;;;5.10;3.63;;;;;;;;;;4956256;28;20047;-68
2021/07/11 01:23:32;;;;;;;2.90;2.65;;;;;;;;;;4968564;28;20049;-69
2021/07/11 01:25:58;;;;;;;2.83;2.63;;;;;;;;;;4969349;28;20468;-68
2021/07/11 01:28:23;;;;;;;3.75;3.42;;;;;;;;;;4971356;28;20034;-68
2021/07/11 01:30:50;;;;;;;4.15;3.55;;;;;;;;;;4969169;28;20039;-68
2021/07/11 01:33:16;;;;;;;3.47;3.00;;;;;;;;;;4968778;28;20373;-68
2021/07/11 01:35:41;;;;;;;3.08;2.70;;;;;;;;;;4968802;28;20038;-68
2021/07/11 01:38:07;;;;;;;3.00;2.80;;;;;;;;;;4968803;28;20026;-68
2021/07/11 01:40:32;;;;;;;3.22;3.03;;;;;;;;;;4971055;28;20022;-68
2021/07/11 01:42:58;;;;;;;2.80;2.60;;;;;;;;;;4969697;28;20042;-68
2021/07/11 01:45:23;;;;;;;2.80;2.58;;;;;;;;;;4987413;28;20033;-66
2021/07/11 01:47:49;;;;;;;3.42;2.65;;;;;;;;;;4972688;28;20336;-69
2021/07/11 01:50:15;;;;;;;2.00;1.90;;;;;;;;;;4972545;28;20035;-68
2021/07/11 01:52:40;;;;;;;2.33;1.75;;;;;;;;;;4957865;28;20555;-67
2021/07/11 01:55:07;;;;;;;2.10;2.00;;;;;;;;;;4952974;28;20042;-67
2021/07/11 01:57:33;;;;;;;1.88;1.77;;;;;;;;;;4953204;28;20397;-67
2021/07/11 01:59:59;;;;;;;1.63;1.52;;;;;;;;;;4953044;28;20118;-66
2021/07/11 02:02:24;;;;;;;1.63;1.52;;;;;;;;;;4952571;28;20146;-67
2021/07/11 02:04:49;;;;;;;1.30;1.20;;;;;;;;;;4953786;29;20528;-67
2021/07/11 02:07:14;;;;;;;1.50;1.40;;;;;;;;;;4955967;28;20038;-67
2021/07/11 02:09:40;;;;;;;1.88;1.30;;;;;;;;;;4953092;28;20125;-67
2021/07/11 02:12:05;;;;;;;1.70;1.50;;;;;;;;;;4952701;28;20035;-67
2021/07/11 02:14:32;;;;;;;1.60;1.50;;;;;;;;;;4952603;28;20042;-67
2021/07/11 02:17:14;;;;;;;1.40;1.30;;;;;;;;;;4952917;28;20019;-67
2021/07/11 02:19:40;;;;;;;1.42;1.33;;;;;;;;;;4954942;28;20099;-67
2021/07/11 02:22:12;;;;;;;3.17;1.17;;;;;;;;;;4969343;28;20051;-67
2021/07/11 02:24:38;;;;;;;4.00;1.50;;;;;;;;;;4951311;28;20043;-67
2021/07/11 02:27:03;;;;;;;1.02;1.02;;;;;;;;;;4952690;28;20065;-67
2021/07/11 02:29:34;;;;;;;1.63;1.20;;;;;;;;;;4952733;28;20125;-67
2021/07/11 02:32:02;;;;;;;2.35;1.20;;;;;;;;;;4952544;28;20024;-67
2021/07/11 02:34:28;;;;;;;1.35;1.25;;;;;;;;;;4954283;28;20019;-67
2021/07/11 02:36:53;;;;;;;1.50;1.40;;;;;;;;;;4952861;28;20043;-67
2021/07/11 02:39:19;;;;;;;2.05;1.00;;;;;;;;;;4952329;28;20042;-68
2021/07/11 02:41:51;;;;;;;1.48;0.93;;;;;;;;;;4950098;29;20044;-67
2021/07/11 02:44:17;;;;;;;3.80;0.88;;;;;;;;;;4951926;28;20020;-67
2021/07/11 02:46:44;;;;;;;1.45;1.20;;;;;;;;;;4953118;29;20418;-68
2021/07/11 02:49:12;;;;;;;2.03;0.90;;;;;;;;;;4952285;28;20046;-67
2021/07/11 02:51:39;;;;;;;1.45;0.75;;;;;;;;;;4952864;28;20036;-67
2021/07/11 02:54:06;;;;;;;1.98;1.15;;;;;;;;;;4969027;28;20077;-68
2021/07/11 02:56:33;;;;;;;0.70;0.70;;;;;;;;;;4971231;28;20039;-67
2021/07/11 02:58:59;;;;;;;0.88;0.88;;;;;;;;;;4971430;28;20019;-67
2021/07/11 03:01:25;;;;;;;1.95;0.80;;;;;;;;;;4973478;28;20047;-67
2021/07/11 03:03:51;;;;;;;2.45;0.70;;;;;;;;;;4985861;28;20211;-67
2021/07/11 03:06:17;;;;;;;0.77;0.77;;;;;;;;;;4965688;28;20051;-68
2021/07/11 03:08:42;;;;;;;1.08;0.95;;;;;;;;;;4951702;28;20031;-67
2021/07/11 03:11:08;;;;;;;1.08;0.98;;;;;;;;;;4951807;28;20782;-68
2021/07/11 03:13:34;;;;;;;0.73;0.73;;;;;;;;;;4952075;28;20031;-68
2021/07/11 03:16:00;;;;;;;0.70;0.70;;;;;;;;;;4951671;28;20038;-67
2021/07/11 03:18:26;;;;;;;0.80;0.80;;;;;;;;;;4951674;28;20035;-68
2021/07/11 03:20:52;;;;;;;5.88;1.10;;;;;;;;;;4950095;28;20047;-69
2021/07/11 03:23:18;;;;;;;1.00;0.90;;;;;;;;;;4950541;28;20114;-69
2021/07/11 03:25:43;;;;;;;1.70;0.95;;;;;;;;;;4953503;28;20027;-68
2021/07/11 03:28:08;;;;;;;0.63;0.63;;;;;;;;;;4951984;28;20063;-67
2021/07/11 03:30:38;;;;;;;2.67;0.90;;;;;;;;;;4951423;28;20053;-68
2021/07/11 03:33:05;;;;;;;3.53;1.15;;;;;;;;;;4950998;28;20047;-67
2021/07/11 03:35:45;;;;;;;2.00;1.30;;;;;;;;;;4951484;28;20477;-68
2021/07/11 03:38:13;;;;;;;1.52;1.20;;;;;;;;;;4959102;28;20029;-68
2021/07/11 03:40:41;;;;;;;1.90;1.40;;;;;;;;;;4951735;28;20062;-68
2021/07/11 03:43:08;;;;;;;1.67;1.17;;;;;;;;;;4951031;28;20055;-68
2021/07/11 03:45:33;;;;;;;1.63;1.52;;;;;;;;;;4951280;28;20039;-69
2021/07/11 03:48:02;;;;;;;3.78;1.58;;;;;;;;;;4951299;28;20043;-68
2021/07/11 03:50:28;;;;;;;1.25;1.15;;;;;;;;;;4951033;28;20503;-68
2021/07/11 03:52:56;;;;;;;1.02;0.93;;;;;;;;;;4959433;28;20062;-69
2021/07/11 03:55:21;;;;;;;3.15;1.42;;;;;;;;;;4951406;28;20042;-69
2021/07/11 03:57:47;;;;;;;5.70;1.38;;;;;;;;;;4966096;28;20035;-69
2021/07/11 04:00:14;;;;;;;1.70;1.48;;;;;;;;;;4951142;28;20035;-69
2021/07/11 04:02:40;;;;;;;1.30;1.20;;;;;;;;;;4950440;28;20046;-68
2021/07/11 04:05:06;;;;;;;1.40;1.30;;;;;;;;;;4949214;28;20022;-68
2021/07/11 04:07:33;;;;;;;1.50;1.40;;;;;;;;;;4958894;28;20024;-69
2021/07/11 04:09:59;;;;;;;2.28;1.30;;;;;;;;;;4950904;28;20126;-69
2021/07/11 04:12:24;;;;;;;1.50;1.40;;;;;;;;;;4950036;28;20571;-69
2021/07/11 04:14:49;;;;;;;1.02;1.02;;;;;;;;;;4950794;28;20573;-69
2021/07/11 04:17:19;;;;;;;1.17;1.08;;;;;;;;;;4950715;28;20036;-69
2021/07/11 04:19:45;;;;;;;1.45;0.90;;;;;;;;;;4952502;28;20615;-70
2021/07/11 04:22:12;;;;;;;1.65;1.05;;;;;;;;;;4955780;28;20079;-68
2021/07/11 04:24:37;;;;;;;1.05;1.00;;;;;;;;;;4957324;28;20121;-69
2021/07/11 04:27:03;;;;;;;1.30;1.20;;;;;;;;;;4969645;28;20496;-68
2021/07/11 04:29:29;;;;;;;1.27;1.17;;;;;;;;;;4969832;28;20023;-69
2021/07/11 04:31:55;;;;;;;1.45;1.00;;;;;;;;;;4986085;28;20053;-63
2021/07/11 04:34:46;;;;;;;1.60;1.00;;;;;;;;;;4970099;28;20029;-68
2021/07/11 04:37:11;;;;;;;1.23;1.13;;;;;;;;;;4963413;28;20131;-68
2021/07/11 04:39:37;;;;;;;2.40;0.98;;;;;;;;;;4950383;28;20118;-68
2021/07/11 04:42:02;;;;;;;1.55;0.90;;;;;;;;;;4948985;28;20186;-68
2021/07/11 04:44:28;;;;;;;1.20;0.90;;;;;;;;;;4950109;28;20031;-68
2021/07/11 04:46:53;;;;;;;1.08;0.98;;;;;;;;;;4952398;28;20027;-69
2021/07/11 04:49:19;;;;;;;1.02;0.70;;;;;;;;;;4950254;28;20038;-68
2021/07/11 04:51:44;;;;;;;0.90;0.82;;;;;;;;;;4953822;28;20049;-69
2021/07/11 04:54:09;;;;;;;1.58;1.00;;;;;;;;;;4964501;28;20026;-68
2021/07/11 04:56:35;;;;;;;1.65;0.73;;;;;;;;;;4950279;28;20031;-68
2021/07/11 04:59:01;;;;;;;1.35;0.93;;;;;;;;;;4950244;28;20055;-69
2021/07/11 05:01:26;;;;;;;2.53;0.80;;;;;;;;;;4951923;28;20479;-68
2021/07/11 05:03:52;;;;;;;2.47;0.77;;;;;;;;;;4948620;29;20090;-68
2021/07/11 05:06:18;;;;;;;1.25;0.80;;;;;;;;;;4951080;28;20043;-69
2021/07/11 05:08:43;;;;;;;0.73;0.73;;;;;;;;;;4953480;28;20043;-68
2021/07/11 05:11:08;;;;;;;1.48;0.80;;;;;;;;;;4948937;28;20020;-68
2021/07/11 05:13:33;;;;;;;2.15;0.70;;;;;;;;;;4951525;28;20417;-68
2021/07/11 05:15:59;;;;;;;0.70;0.70;;;;;;;;;;4950152;28;20043;-68
2021/07/11 05:18:24;;;;;;;0.88;0.85;;;;;;;;;;4953326;28;20039;-69
2021/07/11 05:20:49;;;;;;;0.80;0.70;;;;;;;;;;4953711;28;20038;-69
2021/07/11 05:23:14;;;;;;;0.90;0.80;;;;;;;;;;4956747;28;21185;-68
2021/07/11 05:25:40;;;;;;;0.95;0.82;;;;;;;;;;4955531;28;20270;-68
2021/07/11 05:28:05;;;;;;;0.63;0.55;;;;;;;;;;4952457;29;20031;-68
2021/07/11 05:30:30;;;;;;;1.33;0.60;;;;;;;;;;4953267;28;20051;-69
2021/07/11 05:32:55;;;;;;;0.77;0.70;;;;;;;;;;4953087;28;20035;-69
2021/07/11 05:35:21;;;;;;;1.25;0.55;;;;;;;;;;4953587;28;20512;-70
2021/07/11 05:37:46;;;;;;;1.75;0.70;;;;;;;;;;4958426;28;20114;-69
2021/07/11 05:40:13;;;;;;;0.70;0.52;;;;;;;;;;4953302;28;20035;-69
2021/07/11 05:42:38;;;;;;;0.70;0.70;;;;;;;;;;4952913;28;20051;-69
2021/07/11 05:45:04;;;;;;;1.80;0.75;;;;;;;;;;4953470;28;20032;-67
2021/07/11 05:47:29;;;;;;;1.35;0.80;;;;;;;;;;4953529;28;20125;-67
2021/07/11 05:49:54;;;;;;;1.23;0.70;;;;;;;;;;4955301;28;20106;-69
2021/07/11 05:52:20;;;;;;;2.30;0.70;;;;;;;;;;4955590;28;20027;-70
2021/07/11 05:54:45;;;;;;;1.30;0.80;;;;;;;;;;4967738;28;20126;-69
2021/07/11 05:57:10;;;;;;;0.80;0.57;;;;;;;;;;4953274;28;20042;-70
2021/07/11 05:59:36;;;;;;;1.80;0.80;;;;;;;;;;4951749;29;20047;-68
2021/07/11 06:02:01;;;;;;;0.77;0.50;;;;;;;;;;4952940;28;20325;-69
2021/07/11 06:04:26;;;;;;;1.13;0.77;;;;;;;;;;4954539;28;20031;-69
2021/07/11 06:06:51;;;;;;;0.47;0.47;;;;;;;;;;4955034;28;20030;-69
2021/07/11 06:09:16;;;;;;;1.13;0.60;;;;;;;;;;4952925;28;20401;-69
2021/07/11 06:11:42;;;;;;;0.90;0.40;;;;;;;;;;4952764;28;20406;-68
2021/07/11 06:14:07;;;;;;;0.73;0.60;;;;;;;;;;4952294;28;20259;-69
2021/07/11 06:16:33;;;;;;;0.63;0.60;;;;;;;;;;4954806;28;20018;-69
2021/07/11 06:18:58;;;;;;;1.27;0.50;;;;;;;;;;4951425;29;20129;-68
2021/07/11 06:21:23;;;;;;;1.70;0.50;;;;;;;;;;4952714;28;20110;-69
2021/07/11 06:23:48;;;;;;;0.45;0.43;;;;;;;;;;4953872;28;20535;-70
2021/07/11 06:26:13;;;;;;;1.30;0.60;;;;;;;;;;4952479;28;20365;-69
2021/07/11 06:28:39;;;;;;;0.60;0.60;;;;;;;;;;4954188;28;20027;-69
2021/07/11 06:31:04;;;;;;;0.40;0.40;;;;;;;;;;4967121;28;20043;-69
2021/07/11 06:33:29;;;;;;;1.33;0.40;;;;;;;;;;4952401;28;20136;-69
2021/07/11 06:35:55;;;;;;;0.95;0.65;;;;;;;;;;4952612;28;20039;-69
2021/07/11 06:38:20;;;;;;;0.80;0.55;;;;;;;;;;4953485;28;20035;-69
2021/07/11 06:40:45;;;;;;;0.43;0.43;;;;;;;;;;4954333;28;20027;-69
2021/07/11 06:43:10;;;;;;;0.60;0.53;;;;;;;;;;4950629;28;20504;-69
2021/07/11 06:45:35;;;;;;;0.60;0.60;;;;;;;;;;4951247;29;20274;-68
2021/07/11 06:48:01;;;;;;;1.50;0.60;;;;;;;;;;4952138;28;20114;-68
2021/07/11 06:50:26;;;;;;;0.50;0.50;;;;;;;;;;4952077;28;20729;-69
2021/07/11 06:52:51;;;;;;;1.35;0.50;;;;;;;;;;4954050;28;20114;-69
2021/07/11 06:55:17;;;;;;;1.25;0.70;;;;;;;;;;4952016;28;20078;-68
2021/07/11 06:57:42;;;;;;;0.60;0.50;;;;;;;;;;4952107;28;20540;-69
2021/07/11 07:00:08;;;;;;;0.80;0.80;;;;;;;;;;4952395;28;20054;-69
2021/07/11 07:02:34;;;;;;;0.85;0.77;;;;;;;;;;4951885;28;20476;-68
2021/07/11 07:04:59;;;;;;;0.77;0.77;;;;;;;;;;4952495;28;20022;-68
2021/07/11 07:07:24;;;;;;;1.43;0.60;;;;;;;;;;4974015;28;20031;-69
2021/07/11 07:09:49;;;;;;;1.47;0.80;;;;;;;;;;4954615;28;20311;-68
2021/07/11 07:12:14;;;;;;;0.60;0.60;;;;;;;;;;4951581;28;20362;-68
2021/07/11 07:14:40;;;;;;;3.20;0.70;;;;;;;;;;4951600;28;20349;-68
2021/07/11 07:17:05;;;;;;;0.60;0.60;;;;;;;;;;4952067;28;20026;-68
2021/07/11 07:19:30;;;;;;;1.25;0.93;;;;;;;;;;4953943;28;20259;-68
2021/07/11 07:21:55;;;;;;;2.10;0.90;;;;;;;;;;4951667;28;20054;-68
2021/07/11 07:24:21;;;;;;;2.20;0.97;;;;;;;;;;4962530;28;20030;-68
2021/07/11 07:26:46;;;;;;;1.60;1.00;;;;;;;;;;4970685;28;20271;-69
2021/07/11 07:29:11;;;;;;;1.05;0.95;;;;;;;;;;4985814;28;20019;-68
2021/07/11 07:31:37;;;;;;;0.80;0.80;;;;;;;;;;4972482;28;20030;-68
2021/07/11 07:34:03;;;;;;;0.82;0.80;;;;;;;;;;4985182;28;20321;-68
2021/07/11 07:36:28;;;;;;;1.70;0.85;;;;;;;;;;4970657;28;20057;-68
2021/07/11 07:38:53;;;;;;;1.95;0.98;;;;;;;;;;4975391;28;20122;-69
2021/07/11 07:41:18;;;;;;;1.40;0.90;;;;;;;;;;4950068;28;20069;-69
2021/07/11 07:43:44;;;;;;;1.15;1.00;;;;;;;;;;4952711;28;20254;-69
2021/07/11 07:46:09;;;;;;;2.55;1.10;;;;;;;;;;4951227;28;20722;-68
2021/07/11 07:48:34;;;;;;;2.72;1.33;;;;;;;;;;4951144;28;20066;-69
2021/07/11 07:51:00;;;;;;;1.80;1.30;;;;;;;;;;4951154;28;20035;-68
2021/07/11 07:53:25;;;;;;;1.85;1.15;;;;;;;;;;4956722;28;20271;-68
2021/07/11 07:55:50;;;;;;;2.15;1.60;;;;;;;;;;4952755;28;20094;-69
2021/07/11 07:58:16;;;;;;;2.53;1.50;;;;;;;;;;4965598;28;20055;-69
2021/07/11 08:00:41;;;;;;;1.52;1.15;;;;;;;;;;4950944;28;20362;-69
2021/07/11 08:03:07;;;;;;;2.10;1.08;;;;;;;;;;4950456;28;20077;-69
2021/07/11 08:05:32;;;;;;;1.20;1.10;;;;;;;;;;4949767;29;20590;-69
2021/07/11 08:07:57;;;;;;;1.27;1.17;;;;;;;;;;4960184;28;20027;-69
2021/07/11 08:10:22;;;;;;;1.33;1.23;;;;;;;;;;4969116;28;20038;-69
2021/07/11 08:12:48;;;;;;;1.57;1.10;;;;;;;;;;4969519;28;20042;-69
2021/07/11 08:15:19;;;;;;;1.75;1.20;;;;;;;;;;4970028;28;20653;-69
2021/07/11 08:17:45;;;;;;;1.77;1.30;;;;;;;;;;4970206;28;20031;-69
2021/07/11 08:20:11;;;;;;;1.10;1.10;;;;;;;;;;4970107;28;20329;-70
2021/07/11 08:22:36;;;;;;;1.50;1.38;;;;;;;;;;4985887;28;20035;-69
2021/07/11 08:25:02;;;;;;;1.33;0.90;;;;;;;;;;4951019;28;20039;-69
2021/07/11 08:27:27;;;;;;;1.70;1.00;;;;;;;;;;4950507;28;20680;-69
2021/07/11 08:29:52;;;;;;;1.20;1.10;;;;;;;;;;4950567;28;20726;-69
2021/07/11 08:32:18;;;;;;;1.00;0.90;;;;;;;;;;4949861;28;20287;-71
2021/07/11 08:34:44;;;;;;;1.42;0.90;;;;;;;;;;4952283;28;20019;-69
2021/07/11 08:37:09;;;;;;;1.80;0.95;;;;;;;;;;4949040;28;20736;-69
2021/07/11 08:39:34;;;;;;;2.43;1.17;;;;;;;;;;4967912;28;20384;-69
2021/07/11 08:41:59;;;;;;;1.07;0.97;;;;;;;;;;4969321;28;20306;-69
2021/07/11 08:44:25;;;;;;;1.27;0.82;;;;;;;;;;4969179;28;20316;-69
2021/07/11 08:46:50;;;;;;;1.63;1.10;;;;;;;;;;4971581;28;20209;-69
2021/07/11 08:49:15;;;;;;;0.90;0.90;;;;;;;;;;4969527;28;20050;-70
2021/07/11 08:51:41;;;;;;;1.42;1.30;;;;;;;;;;4970039;28;20608;-69
2021/07/11 08:54:06;;;;;;;1.17;1.10;;;;;;;;;;4961786;28;20066;-69
2021/07/11 08:56:31;;;;;;;1.70;1.10;;;;;;;;;;4954195;28;20031;-69
2021/07/11 08:58:57;;;;;;;1.10;1.00;;;;;;;;;;4954802;29;20278;-69
2021/07/11 09:01:23;;;;;;;1.77;1.10;;;;;;;;;;4954025;28;20035;-69
2021/07/11 09:04:02;;;;;;;1.50;1.10;;;;;;;;;;4953863;28;20035;-69
2021/07/11 09:06:37;;;;;;;3.58;1.52;;;;;;;;;;4954093;28;20409;-69
2021/07/11 09:09:02;;;;;;;1.83;1.25;;;;;;;;;;4972344;28;20031;-69
2021/07/11 09:11:28;;;;;;;1.47;1.30;;;;;;;;;;4953617;28;20042;-69
2021/07/11 09:13:53;;;;;;;1.27;1.10;;;;;;;;;;4955448;28;20267;-69
2021/07/11 09:16:18;;;;;;;1.77;1.40;;;;;;;;;;4968721;28;20272;-70
2021/07/11 09:18:43;;;;;;;1.58;1.40;;;;;;;;;;4954013;28;20038;-69
2021/07/11 09:21:11;;;;;;;2.27;1.40;;;;;;;;;;4953606;28;20437;-70
2021/07/11 09:23:37;;;;;;;2.40;1.13;;;;;;;;;;4955912;28;20310;-70
2021/07/11 09:26:06;;;;;;;1.20;1.00;;;;;;;;;;4968395;28;20430;-70
2021/07/11 09:28:33;;;;;;;1.20;1.10;;;;;;;;;;4955663;28;20039;-69
2021/07/11 09:31:05;;;;;;;2.15;1.40;;;;;;;;;;4968068;28;20528;-69
2021/07/11 09:33:30;;;;;;;3.28;1.13;;;;;;;;;;4952916;28;20491;-69
2021/07/11 09:36:09;;;;;;;1.50;1.40;;;;;;;;;;4953597;28;20127;-70
2021/07/11 09:38:34;;;;;;;1.48;1.38;;;;;;;;;;4956163;28;20401;-69
2021/07/11 09:41:12;;;;;;;1.80;1.50;;;;;;;;;;4971304;28;20077;-70
2021/07/11 09:43:41;;;;;;;1.33;1.23;;;;;;;;;;4974382;28;20114;-69
2021/07/11 09:46:16;;;;;;;1.60;1.50;;;;;;;;;;4972628;28;20039;-69
2021/07/11 09:48:41;;;;;;;1.67;1.58;;;;;;;;;;4972315;28;20045;-70
2021/07/11 09:51:14;;;;;;;1.63;1.52;;;;;;;;;;4972766;28;20121;-70
2021/07/11 09:53:39;;;;;;;2.40;1.70;;;;;;;;;;4964103;28;20043;-70
2021/07/11 09:56:04;;;;;;;1.75;1.60;;;;;;;;;;4953169;28;20470;-70
2021/07/11 09:58:32;;;;;;;2.03;1.60;;;;;;;;;;4955078;28;20034;-68
2021/07/11 10:00:57;;;;;;;1.60;1.50;;;;;;;;;;4952773;28;20278;-67
2021/07/11 10:03:23;;;;;;;1.70;1.60;;;;;;;;;;4951846;28;20134;-69
2021/07/11 10:05:48;;;;;;;1.92;1.73;;;;;;;;;;4952843;28;20504;-69
2021/07/11 10:08:13;;;;;;;2.20;1.52;;;;;;;;;;4954320;28;20090;-69
2021/07/11 10:10:39;;;;;;;1.93;1.77;;;;;;;;;;4955039;28;20026;-69
2021/07/11 10:13:07;;;;;;;2.20;1.50;;;;;;;;;;4952632;28;20274;-69
2021/07/11 10:15:33;;;;;;;2.45;1.90;;;;;;;;;;4967911;28;20441;-71
2021/07/11 10:18:01;;;;;;;2.67;1.55;;;;;;;;;;4953034;28;20032;-68
2021/07/11 10:20:31;;;;;;;1.60;1.50;;;;;;;;;;4953223;28;20039;-68
2021/07/11 10:22:56;;;;;;;1.90;1.70;;;;;;;;;;4969966;28;20496;-68
2021/07/11 10:25:25;;;;;;;1.60;1.50;;;;;;;;;;4965409;28;20034;-68
2021/07/11 10:28:04;;;;;;;1.80;1.70;;;;;;;;;;4986705;28;20038;-68
2021/07/11 10:30:30;;;;;;;3.38;1.77;;;;;;;;;;4971532;28;20049;-69
2021/07/11 10:33:04;;;;;;;2.45;1.88;;;;;;;;;;4971550;28;20035;-69
2021/07/11 10:35:29;;;;;;;2.22;1.98;;;;;;;;;;4986735;28;20039;-69
2021/07/11 10:37:55;;;;;;;3.67;1.97;;;;;;;;;;4971697;28;20022;-68
2021/07/11 10:40:20;;;;;;;2.28;2.08;;;;;;;;;;4952322;28;20334;-69
2021/07/11 10:42:46;;;;;;;1.80;1.70;;;;;;;;;;4952079;28;20094;-68
2021/07/11 10:45:12;;;;;;;2.55;1.90;;;;;;;;;;4966819;28;20082;-68
2021/07/11 10:47:38;;;;;;;2.13;2.03;;;;;;;;;;4952391;28;20033;-68
2021/07/11 10:50:08;;;;;;;2.00;1.90;;;;;;;;;;4952021;28;20015;-68
2021/07/11 10:52:35;;;;;;;3.97;1.63;;;;;;;;;;4953626;28;20469;-70
2021/07/11 10:55:05;;;;;;;1.83;1.73;;;;;;;;;;4959648;28;20482;-68
2021/07/11 10:57:31;;;;;;;2.13;2.03;;;;;;;;;;4952243;28;20073;-68
2021/07/11 11:00:06;;;;;;;2.15;1.95;;;;;;;;;;4951987;28;20066;-69
2021/07/11 11:02:32;;;;;;;6.43;2.97;;;;;;;;;;4951462;28;20090;-68
2021/07/11 11:05:11;;;;;;;2.30;2.17;;;;;;;;;;4954230;28;20024;-68
2021/07/11 11:07:38;;;;;;;2.53;2.33;;;;;;;;;;4952617;28;20043;-68
2021/07/11 11:10:03;;;;;;;2.03;1.92;;;;;;;;;;4969763;28;20042;-68
2021/07/11 11:12:29;;;;;;;2.15;1.80;;;;;;;;;;4970635;28;20053;-69
2021/07/11 11:15:00;;;;;;;1.73;1.63;;;;;;;;;;4985986;28;20031;-68
2021/07/11 11:17:29;;;;;;;1.80;1.70;;;;;;;;;;4971220;28;20023;-68
2021/07/11 11:19:54;;;;;;;1.73;1.60;;;;;;;;;;4972971;28;20018;-69
2021/07/11 11:22:20;;;;;;;1.80;1.70;;;;;;;;;;4970505;28;20039;-68
2021/07/11 11:24:45;;;;;;;2.03;1.92;;;;;;;;;;4962226;28;20074;-69
2021/07/11 11:27:10;;;;;;;2.00;1.90;;;;;;;;;;4951469;28;20067;-69
2021/07/11 11:29:35;;;;;;;1.90;1.57;;;;;;;;;;4951643;28;20286;-69
2021/07/11 11:32:08;;;;;;;1.67;1.50;;;;;;;;;;4951346;28;20063;-67
2021/07/11 11:34:33;;;;;;;3.17;1.90;;;;;;;;;;4967945;28;20428;-69
2021/07/11 11:36:58;;;;;;;1.50;1.40;;;;;;;;;;4951397;28;20055;-69
2021/07/11 11:39:25;;;;;;;1.60;1.50;;;;;;;;;;4957409;28;20385;-68
2021/07/11 11:41:51;;;;;;;1.40;1.40;;;;;;;;;;4951253;28;20449;-69
2021/07/11 11:44:18;;;;;;;1.60;1.50;;;;;;;;;;4950636;28;20448;-70
2021/07/11 11:46:44;;;;;;;1.42;1.33;;;;;;;;;;4951802;29;20400;-69
2021/07/11 11:49:10;;;;;;;2.85;1.60;;;;;;;;;;4965999;28;20043;-69
2021/07/11 11:51:41;;;;;;;1.63;1.52;;;;;;;;;;4951197;28;20039;-69
2021/07/11 11:54:07;;;;;;;1.60;1.50;;;;;;;;;;4956152;28;20497;-69
2021/07/11 11:56:35;;;;;;;2.10;1.73;;;;;;;;;;4956001;28;20033;-69
2021/07/11 11:59:01;;;;;;;1.80;1.70;;;;;;;;;;4972366;28;20270;-69
2021/07/11 12:01:31;;;;;;;1.40;1.30;;;;;;;;;;4985563;28;20034;-68
2021/07/11 12:04:06;;;;;;;1.50;1.50;;;;;;;;;;4970052;28;20039;-69
2021/07/11 12:06:31;;;;;;;2.53;2.05;;;;;;;;;;4970122;28;20030;-69
2021/07/11 12:08:57;;;;;;;3.30;3.00;;;;;;;;;;4969845;28;20039;-69
2021/07/11 12:11:22;;;;;;;2.67;1.90;;;;;;;;;;4969890;28;20266;-70
2021/07/11 12:13:47;;;;;;;1.50;1.40;;;;;;;;;;4971894;28;20381;-69
2021/07/11 12:16:14;;;;;;;1.50;1.40;;;;;;;;;;4969787;28;20034;-70
2021/07/11 12:18:50;;;;;;;1.55;1.45;;;;;;;;;;4968765;28;20341;-71
2021/07/11 12:21:19;;;;;;;1.73;1.50;;;;;;;;;;4969985;28;20041;-70
2021/07/11 12:23:54;;;;;;;1.70;1.60;;;;;;;;;;4969129;28;20031;-70
2021/07/11 12:26:21;;;;;;;1.33;1.23;;;;;;;;;;4950321;28;20019;-70
2021/07/11 12:28:51;;;;;;;3.10;1.60;;;;;;;;;;4952588;28;20474;-69
2021/07/11 12:31:21;;;;;;;3.15;1.95;;;;;;;;;;4950504;28;20035;-69
2021/07/11 12:33:47;;;;;;;28.98;3.33;;;;;;;;;;4950348;28;20046;-69
2021/07/11 12:36:12;;;;;;;8.00;3.55;;;;;;;;;;4949511;28;20524;-69
2021/07/11 12:38:38;;;;;;;4.82;3.97;;;;;;;;;;4953525;28;20042;-69
2021/07/11 12:41:07;;;;;;;13.45;6.50;;;;;;;;;;4968040;28;20054;-68
2021/07/11 12:43:32;;;;;;;16.02;5.30;;;;;;;;;;4971343;28;20460;-69
2021/07/11 12:45:58;;;;;;;37.20;8.43;;;;;;;;;;4969314;28;20485;-69
2021/07/11 12:48:41;;;;;;;24.57;8.57;;;;;;;;;;4969323;28;20042;-67
2021/07/11 12:51:24;;;;;;;20.63;12.80;;;;;;;;;;4969024;28;20037;-67
2021/07/11 12:53:54;;;;;;;14.30;11.52;;;;;;;;;;4967765;28;20531;-68
2021/07/11 12:56:28;;;;;;;18.23;14.32;;;;;;;;;;4949545;28;20381;-68
2021/07/11 12:58:54;;;;;;;16.23;14.07;;;;;;;;;;4966926;28;20020;-68
2021/07/11 13:01:24;;;;;;;10.32;9.40;;;;;;;;;;4949974;28;20130;-68
2021/07/11 13:03:57;;;;;;;14.60;11.77;;;;;;;;;;4949746;28;20523;-68
2021/07/11 13:06:28;;;;;;;10.60;9.70;;;;;;;;;;4949763;28;20043;-68
2021/07/11 13:08:54;;;;;;;10.43;9.45;;;;;;;;;;4952590;28;20089;-68
2021/07/11 13:11:19;;;;;;;8.27;7.57;;;;;;;;;;4949274;28;20023;-69
2021/07/11 13:13:44;;;;;;;8.70;7.90;;;;;;;;;;4951457;28;20641;-68
2021/07/11 13:16:09;;;;;;;7.17;6.40;;;;;;;;;;4949938;28;20279;-67
2021/07/11 13:18:34;;;;;;;5.13;4.73;;;;;;;;;;4950057;28;20287;-68
2021/07/11 13:21:00;;;;;;;4.30;3.87;;;;;;;;;;4949716;28;20275;-67
2021/07/11 13:23:25;;;;;;;3.33;3.08;;;;;;;;;;4949204;28;20278;-69
2021/07/11 13:25:50;;;;;;;3.87;3.57;;;;;;;;;;4952622;28;20023;-68
2021/07/11 13:28:15;;;;;;;4.10;3.67;;;;;;;;;;4949685;28;20295;-67
2021/07/11 13:30:41;;;;;;;4.50;4.10;;;;;;;;;;4949630;28;20449;-66
2021/07/11 13:33:06;;;;;;;4.10;3.80;;;;;;;;;;4949650;28;20714;-71
2021/07/11 13:35:31;;;;;;;3.92;3.63;;;;;;;;;;4964746;28;20039;-67
2021/07/11 13:37:57;;;;;;;3.53;3.22;;;;;;;;;;4952004;28;20075;-67
2021/07/11 13:40:22;;;;;;;3.55;3.25;;;;;;;;;;4966186;28;20045;-68
2021/07/11 13:42:48;;;;;;;3.40;2.50;;;;;;;;;;4972494;28;20131;-66
2021/07/11 13:45:14;;;;;;;2.20;2.10;;;;;;;;;;4972665;28;20043;-67
2021/07/11 13:47:40;;;;;;;2.80;2.28;;;;;;;;;;4972476;28;20040;-67
2021/07/11 13:50:08;;;;;;;2.47;2.03;;;;;;;;;;4972688;28;20027;-67
2021/07/11 13:52:33;;;;;;;1.77;1.60;;;;;;;;;;4973686;28;20492;-66
2021/07/11 13:54:58;;;;;;;1.90;1.80;;;;;;;;;;4961709;28;20066;-67
2021/07/11 13:57:23;;;;;;;1.45;1.35;;;;;;;;;;4952972;28;20279;-68
2021/07/11 13:59:48;;;;;;;1.70;1.60;;;;;;;;;;4952902;28;20177;-67
2021/07/11 14:02:14;;;;;;;1.20;1.20;;;;;;;;;;4952524;28;20035;-67
2021/07/11 14:04:39;;;;;;;1.40;1.30;;;;;;;;;;4955036;28;20309;-67
2021/07/11 14:07:04;;;;;;;2.20;1.10;;;;;;;;;;4952790;28;20640;-68
2021/07/11 14:09:29;;;;;;;1.50;1.40;;;;;;;;;;4952925;28;20278;-68
2021/07/11 14:11:55;;;;;;;1.15;1.10;;;;;;;;;;4952628;28;20263;-68
2021/07/11 14:14:20;;;;;;;3.07;1.17;;;;;;;;;;4952508;28;20428;-69
2021/07/11 14:16:45;;;;;;;1.30;1.20;;;;;;;;;;4954764;28;20792;-69
2021/07/11 14:19:10;;;;;;;1.17;1.08;;;;;;;;;;4953044;28;20045;-69
2021/07/11 14:21:38;;;;;;;1.50;1.40;;;;;;;;;;4952595;28;20056;-69
2021/07/11 14:24:04;;;;;;;1.27;0.90;;;;;;;;;;4954654;28;20069;-70
2021/07/11 14:26:29;;;;;;;1.10;1.00;;;;;;;;;;4957539;28;20067;-70
2021/07/11 14:28:54;;;;;;;1.40;1.30;;;;;;;;;;4954406;28;20529;-70
2021/07/11 14:31:19;;;;;;;1.50;1.40;;;;;;;;;;4952234;28;20098;-70
2021/07/11 14:33:44;;;;;;;1.90;1.65;;;;;;;;;;4951800;28;20036;-70
2021/07/11 14:36:10;;;;;;;1.17;1.17;;;;;;;;;;4952644;28;20696;-70
2021/07/11 14:38:35;;;;;;;0.90;0.88;;;;;;;;;;4952403;28;20061;-70